createdAt,value
2019-04-20T00:00:43.155Z,54.10
2019-04-20T00:04:45.683Z,54.60
2019-04-20T00:08:57.876Z,55.40
2019-04-20T00:13:08.829Z,56.10
2019-04-20T00:17:03.603Z,56.20
2019-04-20T00:21:26.895Z,56.60
2019-04-20T00:26:02.287Z,56.60
2019-04-20T00:30:06.737Z,58.10
2019-04-20T00:34:09.225Z,58.00
2019-04-20T00:38:07.803Z,58.70
2019-04-20T00:42:14.945Z,58.60
2019-04-20T00:46:26.380Z,59.20
2019-04-20T00:50:40.370Z,58.90
2019-04-20T00:54:32.594Z,59.30
2019-04-20T00:58:52.340Z,60.10
2019-04-20T01:02:54.305Z,60.60
2019-04-20T01:07:13.739Z,60.60
2019-04-20T01:11:08.104Z,62.30
2019-04-20T01:15:25.573Z,62.40
2019-04-20T01:19:20.597Z,62.30
2019-04-20T01:23:37.557Z,63.40
2019-04-20T01:27:42.470Z,64.40
2019-04-20T01:31:56.058Z,64.40
2019-04-20T01:35:56.937Z,64.90
2019-04-20T01:39:56.764Z,65.50
2019-04-20T01:43:58.626Z,66.10
2019-04-20T01:48:04.775Z,67.40
2019-04-20T01:52:19.184Z,68.30
2019-04-20T01:56:31.609Z,68.80
2019-04-20T02:00:48.064Z,68.60
2019-04-20T02:04:59.482Z,70.00
2019-04-20T02:09:06.671Z,69.60
2019-04-20T02:13:10.755Z,69.90
2019-04-20T02:17:26.042Z,70.90
2019-04-20T02:21:38.637Z,71.10
2019-04-20T02:25:29.084Z,71.80
2019-04-20T02:30:03.789Z,71.80
2019-04-20T02:34:26.128Z,72.10
2019-04-20T02:38:56.433Z,72.20
2019-04-20T03:02:55.912Z,74.70
2019-04-20T03:07:07.960Z,75.00
2019-04-20T03:11:20.942Z,77.60
2019-04-20T03:15:29.570Z,78.10
2019-04-20T03:19:23.300Z,77.90
2019-04-20T03:23:45.214Z,78.50
2019-04-20T03:27:47.568Z,79.20
2019-04-20T03:32:27.912Z,79.90
2019-04-20T03:36:19.971Z,80.70
2019-04-20T03:40:10.040Z,81.30
2019-04-20T03:44:09.033Z,82.00
2019-04-20T03:48:26.585Z,83.90
2019-04-20T03:52:43.052Z,84.10
2019-04-20T03:57:23.591Z,85.40
2019-04-20T04:02:03.254Z,84.80
2019-04-20T04:05:54.754Z,85.70
2019-04-20T04:10:08.460Z,86.20
2019-04-20T04:13:52.649Z,86.30
2019-04-20T04:18:04.402Z,87.10
2019-04-20T04:22:18.058Z,87.60
2019-04-20T04:26:27.514Z,86.90
2019-04-20T04:30:35.310Z,87.40
2019-04-20T04:34:44.451Z,88.10
2019-04-20T04:38:57.171Z,88.60
2019-04-20T04:43:02.249Z,89.20
2019-04-20T04:46:54.680Z,88.20
2019-04-20T04:51:01.266Z,89.00
2019-04-20T04:55:13.397Z,89.50
2019-04-20T04:59:08.825Z,89.00
2019-04-20T05:03:37.565Z,88.80
2019-04-20T05:07:49.590Z,89.70
2019-04-20T05:11:42.821Z,90.00
2019-04-20T05:16:00.180Z,90.00
2019-04-20T05:20:16.265Z,89.80
2019-04-20T05:24:29.165Z,90.00
2019-04-20T05:28:30.583Z,89.80
2019-04-20T05:32:35.818Z,90.20
2019-04-20T05:36:53.076Z,90.30
2019-04-20T05:41:02.081Z,89.80
2019-04-20T05:45:07.547Z,89.00
2019-04-20T05:49:23.400Z,88.50
2019-04-20T05:53:26.993Z,88.70
2019-04-20T05:57:40.076Z,89.60
2019-04-20T06:01:44.016Z,89.50
2019-04-20T06:05:52.499Z,89.00
2019-04-20T06:09:55.256Z,88.00
2019-04-20T06:14:07.052Z,87.10
2019-04-20T06:18:34.818Z,86.90
2019-04-20T06:22:48.341Z,86.60
2019-04-20T06:27:00.590Z,86.80
2019-04-20T06:30:56.868Z,85.80
2019-04-20T06:35:18.943Z,85.50
2019-04-20T06:39:20.053Z,85.10
2019-04-20T06:43:25.412Z,84.40
2019-04-20T06:47:30.747Z,83.60
2019-04-20T06:51:42.131Z,82.70
2019-04-20T06:55:57.354Z,82.10
2019-04-20T07:00:03.233Z,80.70
2019-04-20T07:04:21.158Z,76.50
2019-04-20T07:08:27.697Z,73.20
2019-04-20T07:12:18.680Z,72.50
2019-04-20T07:16:30.604Z,74.00
2019-04-20T07:21:05.330Z,71.60
2019-04-20T07:25:16.084Z,67.80
2019-04-20T07:29:13.658Z,58.10
2019-04-20T07:33:17.246Z,51.20
2019-04-20T07:37:46.686Z,49.30
2019-04-20T07:41:42.991Z,46.80
2019-04-20T07:45:35.091Z,49.80
2019-04-20T07:49:43.081Z,48.30
2019-04-20T07:53:45.298Z,44.80
2019-04-20T07:57:55.104Z,48.30
2019-04-20T08:02:24.962Z,49.40
2019-04-20T08:06:18.092Z,48.70
2019-04-20T08:10:34.356Z,42.60
2019-04-20T08:14:51.613Z,37.50
2019-04-20T08:18:55.737Z,31.20
2019-04-20T08:23:02.967Z,29.70
2019-04-20T08:26:55.178Z,29.80
2019-04-20T08:31:29.194Z,31.30
2019-04-20T08:35:46.451Z,37.30
2019-04-20T08:39:51.044Z,37.80
2019-04-20T08:43:53.939Z,36.80
2019-04-20T08:48:09.938Z,31.20
2019-04-20T08:52:12.373Z,34.10
2019-04-20T08:56:05.841Z,33.10
2019-04-20T08:59:56.086Z,35.60
2019-04-20T09:04:11.252Z,36.40
2019-04-20T09:08:16.211Z,35.90
2019-04-20T09:12:34.537Z,36.80
2019-04-20T09:16:26.966Z,40.80
2019-04-20T09:20:38.358Z,36.70
2019-04-20T09:25:01.850Z,34.80
2019-04-20T09:29:12.653Z,36.30
2019-04-20T09:33:33.595Z,37.90
2019-04-20T09:37:53.164Z,37.70
2019-04-20T09:42:00.658Z,39.00
2019-04-20T09:46:00.039Z,37.40
2019-04-20T09:50:21.166Z,35.80
2019-04-20T09:54:25.679Z,33.50
2019-04-20T09:58:26.221Z,35.20
2019-04-20T10:02:25.882Z,35.40
2019-04-20T10:06:30.704Z,32.60
2019-04-20T10:10:41.604Z,32.60
2019-04-20T10:14:40.824Z,32.50
2019-04-20T10:18:50.733Z,31.20
2019-04-20T10:22:52.249Z,30.80
2019-04-20T10:26:56.849Z,30.30
2019-04-20T10:31:02.312Z,29.20
2019-04-20T10:35:08.606Z,29.90
2019-04-20T10:39:14.345Z,29.10
2019-04-20T10:43:19.802Z,27.60
2019-04-20T10:47:25.271Z,28.70
2019-04-20T10:51:31.491Z,26.80
2019-04-20T10:55:37.642Z,26.70
2019-04-20T10:59:43.722Z,26.80
2019-04-20T11:03:50.369Z,26.30
2019-04-20T11:07:55.167Z,26.50
2019-04-20T11:11:59.864Z,26.10
2019-04-20T11:16:04.679Z,28.30
2019-04-20T11:20:09.760Z,25.70
2019-04-20T11:24:14.603Z,27.30
2019-04-20T11:28:19.926Z,27.40
2019-04-20T11:32:26.148Z,29.30
2019-04-20T11:36:31.087Z,27.80
2019-04-20T11:40:37.000Z,26.30
2019-04-20T11:44:42.917Z,24.40
2019-04-20T11:48:47.778Z,26.80
2019-04-20T11:52:53.101Z,25.80
2019-04-20T11:56:59.504Z,26.80
2019-04-20T12:01:21.678Z,25.80
2019-04-20T12:05:33.384Z,26.30
2019-04-20T12:09:31.549Z,25.60
2019-04-20T12:13:36.645Z,26.80
2019-04-20T12:17:41.793Z,26.50
2019-04-20T12:21:47.495Z,26.50
2019-04-20T12:25:52.389Z,27.30
2019-04-20T12:29:57.549Z,24.90
2019-04-20T12:34:02.550Z,25.30
2019-04-20T12:38:07.411Z,25.50
2019-04-20T12:42:13.013Z,22.90
2019-04-20T12:46:19.828Z,23.90
2019-04-20T12:50:25.589Z,26.10
2019-04-20T12:54:32.368Z,24.80
2019-04-20T12:58:37.078Z,23.80
2019-04-20T13:02:43.162Z,24.60
2019-04-20T13:06:49.016Z,23.10
2019-04-20T13:11:02.550Z,22.80
2019-04-20T13:15:32.121Z,24.00
2019-04-20T13:19:37.528Z,24.40
2019-04-20T13:23:42.738Z,23.60
2019-04-20T13:27:47.508Z,23.40
2019-04-20T13:31:54.596Z,22.80
2019-04-20T13:35:58.779Z,22.30
2019-04-20T13:40:04.927Z,22.30
2019-04-20T13:44:09.732Z,22.40
2019-04-20T13:48:15.137Z,22.50
2019-04-20T13:52:20.602Z,21.20
2019-04-20T13:56:25.915Z,23.50
2019-04-20T14:00:43.283Z,22.70
2019-04-20T14:04:57.069Z,20.60
2019-04-20T14:09:03.355Z,23.30
2019-04-20T14:13:14.922Z,21.90
2019-04-20T14:17:17.018Z,22.40
2019-04-20T14:21:22.317Z,21.10
2019-04-20T14:25:27.309Z,20.30
2019-04-20T14:29:32.743Z,21.10
2019-04-20T14:33:39.023Z,22.40
2019-04-20T14:37:43.945Z,21.60
2019-04-20T14:41:48.689Z,24.10
2019-04-20T14:45:54.508Z,24.00
2019-04-20T14:50:01.655Z,24.40
2019-04-20T14:54:05.731Z,24.30
2019-04-20T14:58:29.551Z,24.50
2019-04-20T15:02:34.287Z,25.10
2019-04-20T15:06:39.982Z,25.70
2019-04-20T15:10:44.829Z,25.00
2019-04-20T15:14:50.368Z,25.60
2019-04-20T15:19:13.752Z,24.50
2019-04-20T15:23:26.039Z,24.40
2019-04-20T15:27:30.938Z,23.50
2019-04-20T15:31:36.425Z,23.20
2019-04-20T15:35:42.018Z,23.20
2019-04-20T15:39:47.405Z,22.90
2019-04-20T15:43:53.216Z,22.50
2019-04-20T15:47:59.540Z,22.10
2019-04-20T15:52:05.921Z,22.10
2019-04-20T15:56:11.768Z,21.30
2019-04-20T16:00:18.449Z,21.60
2019-04-20T16:04:43.133Z,21.50
2019-04-20T16:08:50.333Z,22.70
2019-04-20T16:13:07.354Z,22.90
2019-04-20T16:17:04.054Z,23.80
2019-04-20T16:21:14.268Z,24.40
2019-04-20T16:25:23.370Z,24.70
2019-04-20T16:29:29.397Z,25.30
2019-04-20T16:33:34.545Z,24.50
2019-04-20T16:37:40.288Z,25.00
2019-04-20T16:41:46.487Z,26.10
2019-04-20T16:45:51.169Z,25.70
2019-04-20T16:49:56.998Z,25.90
2019-04-20T16:54:02.139Z,26.30
2019-04-20T16:58:08.149Z,26.30
2019-04-20T17:02:15.956Z,26.70
2019-04-20T17:06:20.579Z,27.40
2019-04-20T17:10:26.486Z,28.10
2019-04-20T17:14:31.787Z,28.80
2019-04-20T17:18:37.408Z,29.10
2019-04-20T17:22:44.307Z,29.60
2019-04-20T17:26:59.170Z,30.00
2019-04-20T17:31:13.556Z,30.40
2019-04-20T17:35:33.802Z,31.60
2019-04-20T17:39:31.048Z,31.20
2019-04-20T17:43:56.963Z,32.30
2019-04-20T17:48:01.888Z,32.50
2019-04-20T17:52:21.517Z,33.00
2019-04-20T17:56:00.744Z,32.50
2019-04-20T18:00:15.693Z,33.20
2019-04-20T18:04:54.922Z,34.00
2019-04-20T18:08:52.203Z,34.80
2019-04-20T18:12:44.596Z,35.10
2019-04-20T18:17:11.408Z,35.30
2019-04-20T18:21:06.463Z,35.90
2019-04-20T18:25:29.714Z,35.80
2019-04-20T18:29:36.849Z,36.50
2019-04-20T18:33:30.179Z,36.60
2019-04-20T18:37:33.274Z,37.30
2019-04-20T18:41:45.494Z,37.40
2019-04-20T18:46:10.978Z,38.40
2019-04-20T18:50:05.072Z,38.90
2019-04-20T18:54:08.566Z,39.60
2019-04-20T18:58:09.130Z,40.30
2019-04-20T19:02:20.035Z,41.00
2019-04-20T19:06:21.264Z,41.90
2019-04-20T19:10:31.598Z,42.30
2019-04-20T19:14:51.741Z,42.50
2019-04-20T19:19:20.099Z,43.70
2019-04-20T19:23:14.757Z,43.80
2019-04-20T19:27:29.118Z,43.00
2019-04-20T19:31:43.236Z,42.50
2019-04-20T19:35:42.088Z,41.90
2019-04-20T19:39:53.197Z,42.40
2019-04-20T19:44:02.530Z,43.10
2019-04-20T19:48:09.396Z,43.60
2019-04-20T19:52:34.584Z,44.10
2019-04-20T19:56:26.118Z,44.80
2019-04-20T20:00:16.533Z,45.40
2019-04-20T20:04:21.882Z,45.50
2019-04-20T20:08:31.082Z,46.20
2019-04-20T20:12:35.673Z,45.70
2019-04-20T20:16:58.864Z,46.60
2019-04-20T20:21:04.790Z,46.50
2019-04-20T20:24:54.924Z,46.50
2019-04-20T20:29:08.183Z,47.50
2019-04-20T20:33:22.128Z,48.20
2019-04-20T20:37:24.080Z,48.30
2019-04-20T20:41:28.162Z,49.00
2019-04-20T20:45:35.036Z,49.70
2019-04-20T20:50:04.048Z,49.50
2019-04-20T20:53:54.633Z,50.10
2019-04-20T20:58:01.047Z,50.10
2019-04-20T21:02:06.852Z,50.30
2019-04-20T21:06:07.444Z,50.70
2019-04-20T21:10:15.285Z,50.50
2019-04-20T21:14:22.010Z,49.40
2019-04-20T21:18:43.518Z,50.60
2019-04-20T21:22:49.188Z,50.70
2019-04-20T21:26:42.345Z,50.90
2019-04-20T21:30:48.384Z,51.70
2019-04-20T21:34:55.675Z,51.00
2019-04-20T21:39:01.518Z,50.60
2019-04-20T21:43:09.479Z,51.00
2019-04-20T21:47:15.739Z,51.70
2019-04-20T21:51:32.759Z,51.70
2019-04-20T21:55:27.942Z,52.80
2019-04-20T21:59:40.970Z,51.80
2019-04-20T22:03:40.433Z,51.50
2019-04-20T22:07:46.426Z,51.00
2019-04-20T22:11:51.921Z,51.30
2019-04-20T22:16:04.740Z,51.50
2019-04-20T22:20:18.903Z,51.60
2019-04-20T22:24:28.710Z,51.50
2019-04-20T22:28:18.146Z,51.50
2019-04-20T22:32:23.951Z,51.30
2019-04-20T22:36:34.023Z,52.00
2019-04-20T22:40:36.706Z,51.00
2019-04-20T22:44:47.979Z,51.10
2019-04-20T22:49:06.885Z,51.80
2019-04-20T22:53:18.018Z,50.80
2019-04-20T22:57:22.681Z,51.20
2019-04-20T23:01:23.346Z,51.60
2019-04-20T23:05:18.553Z,51.80
2019-04-20T23:09:24.617Z,51.70
2019-04-20T23:13:37.800Z,52.10
2019-04-20T23:17:42.149Z,51.70
2019-04-20T23:21:48.697Z,51.40
2019-04-20T23:25:51.383Z,51.80
2019-04-20T23:29:58.364Z,51.20
2019-04-20T23:34:11.240Z,51.20
2019-04-20T23:38:16.085Z,51.20
2019-04-20T23:42:21.900Z,52.10
2019-04-20T23:46:43.671Z,51.00
2019-04-20T23:51:07.896Z,51.20
2019-04-20T23:55:00.951Z,51.00
2019-04-20T23:59:02.363Z,51.20
